Time;durP1;ratioP1;P1;durP2;ratioP2;P2;SDS_P1;SDS_P2;PMS_P1;PMS_P2;Temp;Humidity;BMP_temperature;BMP_pressure;BME280_temperature;BME280_humidity;BME280_pressure;Samples;Min_cycle;Max_cycle;Signal;HPM_P1;HPM_P2
2022/07/31 00:01:01;;;;;;;17.30;15.75;;;;;;;;;;5014646;28;20584;-65
2022/07/31 00:03:27;;;;;;;17.50;15.95;;;;;;;20.76;nan;94970.66;5014202;28;20201;-65
2022/07/31 00:05:54;;;;;;;17.08;15.57;;;;;;;;;;5014509;28;20216;-66
2022/07/31 00:08:20;;;;;;;17.70;15.93;;;;;;;;;;5014375;28;20258;-64
2022/07/31 00:10:47;;;;;;;15.88;14.23;;;;;;;;;;5013829;28;20224;-65
2022/07/31 00:13:13;;;;;;;17.27;15.65;;;;;;;;;;5013865;28;20200;-64
2022/07/31 00:15:41;;;;;;;15.82;14.32;;;;;;;;;;5014029;28;20205;-65
2022/07/31 00:18:08;;;;;;;15.63;14.10;;;;;;;;;;5014201;28;20623;-64
2022/07/31 00:20:35;;;;;;;20.17;14.38;;;;;;;;;;5013728;28;20666;-65
2022/07/31 00:23:01;;;;;;;15.32;13.95;;;;;;;;;;5013302;28;20283;-65
2022/07/31 00:25:29;;;;;;;16.95;14.05;;;;;;;;;;5013081;28;20259;-65
2022/07/31 00:27:56;;;;;;;15.35;13.88;;;;;;;;;;5013423;28;20196;-63
2022/07/31 00:30:22;;;;;;;14.27;12.85;;;;;;;;;;5013643;28;20231;-65
2022/07/31 00:32:50;;;;;;;14.55;13.32;;;;;;;;;;5013346;28;20679;-65
2022/07/31 00:35:17;;;;;;;13.60;12.38;;;;;;;;;;5013436;28;20698;-66
2022/07/31 00:37:44;;;;;;;14.25;12.98;;;;;;;;;;5013945;28;20204;-65
2022/07/31 00:40:12;;;;;;;13.82;12.63;;;;;;;;;;5013644;28;20224;-66
2022/07/31 00:42:39;;;;;;;15.50;14.13;;;;;;;;;;5013407;28;20204;-66
2022/07/31 00:45:06;;;;;;;17.05;14.68;;;;;;;;;;5013377;28;20889;-66
2022/07/31 00:47:32;;;;;;;14.95;13.57;;;;;;;;;;5013274;28;20204;-65
2022/07/31 00:50:00;;;;;;;14.95;13.65;;;;;;;;;;5013067;28;20286;-65
2022/07/31 00:52:27;;;;;;;15.40;14.02;;;;;;;;;;5013099;28;20240;-66
2022/07/31 00:54:53;;;;;;;15.30;14.00;;;;;;;;;;5012999;28;20197;-66
2022/07/31 00:57:20;;;;;;;14.50;13.40;;;;;;;;;;5013191;28;20204;-65
2022/07/31 00:59:46;;;;;;;15.30;14.00;;;;;;;;;;5012921;28;20204;-64
2022/07/31 01:02:13;;;;;;;16.75;15.23;;;;;;;;;;5012956;28;20632;-65
2022/07/31 01:04:40;;;;;;;16.00;14.52;;;;;;;;;;5012570;28;20283;-66
2022/07/31 01:07:07;;;;;;;14.70;13.45;;;;;;;;;;5013498;28;20204;-66
2022/07/31 01:09:34;;;;;;;15.38;13.88;;;;;;;;;;5012867;28;20263;-66
2022/07/31 01:12:02;;;;;;;15.10;13.90;;;;;;;;;;5012894;28;20634;-65
2022/07/31 01:14:30;;;;;;;16.42;14.13;;;;;;;;;;5012946;28;20227;-65
2022/07/31 01:16:57;;;;;;;15.48;13.93;;;;;;;;;;5012683;28;20201;-64
2022/07/31 01:19:25;;;;;;;14.18;12.90;;;;;;;;;;5012649;28;20674;-66
2022/07/31 01:21:58;;;;;;;19.35;15.88;;;;;;;;;;5012705;28;20666;-66
2022/07/31 01:24:37;;;;;;;15.63;13.98;;;;;;;;;;5012928;28;20200;-65
2022/07/31 01:27:06;;;;;;;15.85;14.38;;;;;;;;;;5012744;28;20201;-65
2022/07/31 01:29:35;;;;;;;14.27;12.95;;;;;;;;;;5012648;28;20208;-65
2022/07/31 01:32:03;;;;;;;14.23;12.95;;;;;;;;;;5012853;28;20230;-64
2022/07/31 01:34:33;;;;;;;14.73;13.48;;;;;;;;;;5012557;28;20204;-65
2022/07/31 01:37:03;;;;;;;14.73;13.48;;;;;;;;;;5012846;28;20278;-65
2022/07/31 01:39:32;;;;;;;14.02;12.85;;;;;;;;;;5011421;28;20203;-65
2022/07/31 01:42:00;;;;;;;14.20;12.70;;;;;;;;;;5012666;28;20279;-65
2022/07/31 01:44:27;;;;;;;15.50;12.73;;;;;;;;;;5011911;28;20267;-66
2022/07/31 01:46:57;;;;;;;12.48;11.43;;;;;;;;;;5012374;28;20229;-65
2022/07/31 01:49:24;;;;;;;12.65;11.60;;;;;;;;;;5012163;28;20205;-65
2022/07/31 01:51:52;;;;;;;13.63;12.43;;;;;;;;;;5012053;28;20299;-65
2022/07/31 01:54:19;;;;;;;14.00;13.00;;;;;;;;;;5011986;28;20254;-66
2022/07/31 01:56:46;;;;;;;14.02;12.77;;;;;;;;;;5012257;28;20293;-65
2022/07/31 01:59:13;;;;;;;14.80;12.35;;;;;;;;;;5012319;28;20208;-65
2022/07/31 02:01:40;;;;;;;17.10;13.57;;;;;;;;;;5011817;28;20694;-65
2022/07/31 02:04:08;;;;;;;13.32;12.10;;;;;;;;;;5012140;28;20292;-65
2022/07/31 02:06:36;;;;;;;13.57;12.38;;;;;;;;;;5011795;28;20250;-66
2022/07/31 02:09:03;;;;;;;13.60;12.25;;;;;;;21.99;nan;94953.31;5012150;28;20196;-66
2022/07/31 02:11:30;;;;;;;14.68;13.23;;;;;;;;;;5011644;28;20224;-64
2022/07/31 02:13:57;;;;;;;13.00;11.90;;;;;;;;;;5011530;28;20204;-66
2022/07/31 02:16:24;;;;;;;12.55;11.63;;;;;;;;;;5011907;28;20255;-66
2022/07/31 02:18:52;;;;;;;12.75;11.75;;;;;;;;;;5011538;28;20291;-65
2022/07/31 02:21:20;;;;;;;13.55;12.32;;;;;;;;;;5011668;28;20841;-66
2022/07/31 02:23:46;;;;;;;14.20;12.85;;;;;;;;;;5011761;28;20262;-65
2022/07/31 02:26:15;;;;;;;16.27;12.52;;;;;;;;;;5011594;28;20255;-65
2022/07/31 02:28:42;;;;;;;13.70;11.45;;;;;;;;;;5011455;28;20747;-65
2022/07/31 02:31:10;;;;;;;12.63;11.48;;;;;;;;;;5011333;28;20216;-65
2022/07/31 02:33:38;;;;;;;11.52;10.07;;;;;;;;;;5011393;28;20654;-65
2022/07/31 02:36:06;;;;;;;11.27;10.13;;;;;;;;;;5011228;28;20295;-67
2022/07/31 02:38:35;;;;;;;11.98;10.82;;;;;;;;;;5011346;28;20270;-65
2022/07/31 02:41:03;;;;;;;12.50;11.50;;;;;;;;;;5011518;28;20208;-65
2022/07/31 02:43:31;;;;;;;12.40;11.38;;;;;;;;;;5011333;28;20207;-65
2022/07/31 02:45:58;;;;;;;12.63;11.50;;;;;;;;;;5011315;28;20205;-66
2022/07/31 02:48:26;;;;;;;13.10;11.98;;;;;;;22.15;nan;94995.16;5011420;28;20199;-65
2022/07/31 02:50:52;;;;;;;12.68;11.65;;;;;;;;;;5011069;28;20302;-66
2022/07/31 02:53:19;;;;;;;12.93;11.77;;;;;;;;;;5011158;28;20639;-66
2022/07/31 02:55:47;;;;;;;12.10;11.10;;;;;;;;;;5011088;28;20267;-66
2022/07/31 02:58:13;;;;;;;11.43;10.32;;;;;;;;;;5010986;28;20635;-65
2022/07/31 03:00:40;;;;;;;13.52;12.25;;;;;;;;;;5011624;28;20196;-66
2022/07/31 03:03:06;;;;;;;11.70;10.85;;;;;;;;;;5011118;28;20266;-66
2022/07/31 03:05:33;;;;;;;13.30;11.38;;;;;;;;;;5011479;28;20216;-67
2022/07/31 03:07:59;;;;;;;12.93;11.98;;;;;;;;;;5011146;28;20634;-64
2022/07/31 03:10:26;;;;;;;11.10;10.30;;;;;;;;;;5011203;28;20236;-65
2022/07/31 03:12:55;;;;;;;11.30;10.30;;;;;;;;;;5011041;28;20207;-66
2022/07/31 03:15:23;;;;;;;11.25;10.35;;;;;;;;;;5010937;28;20204;-66
2022/07/31 03:17:50;;;;;;;11.10;10.25;;;;;;;;;;5010978;28;20204;-65
2022/07/31 03:20:16;;;;;;;12.07;10.85;;;;;;;;;;5010907;28;20632;-65
2022/07/31 03:22:43;;;;;;;11.43;10.55;;;;;;;;;;5010660;28;20224;-66
2022/07/31 03:25:10;;;;;;;13.38;12.00;;;;;;;;;;5010935;28;20204;-66
2022/07/31 03:27:37;;;;;;;11.48;10.32;;;;;;;21.17;nan;94991.59;5011092;28;20196;-65
2022/07/31 03:30:06;;;;;;;11.63;10.48;;;;;;;;;;5010891;28;20200;-65
2022/07/31 03:32:34;;;;;;;13.40;10.35;;;;;;;;;;5010817;28;20278;-65
2022/07/31 03:35:00;;;;;;;10.80;10.10;;;;;;;;;;5010829;28;20196;-65
2022/07/31 03:37:27;;;;;;;10.88;10.07;;;;;;;;;;5010473;28;20687;-65
2022/07/31 03:39:53;;;;;;;10.65;9.75;;;;;;;;;;5011030;28;20205;-64
2022/07/31 03:42:20;;;;;;;11.57;10.65;;;;;;;;;;5010631;28;20188;-65
2022/07/31 03:44:47;;;;;;;11.60;10.45;;;;;;;;;;5010827;28;20254;-66
2022/07/31 03:47:15;;;;;;;12.13;11.07;;;;;;;;;;5010811;28;20670;-66
2022/07/31 03:49:42;;;;;;;11.15;10.38;;;;;;;;;;5010725;28;20200;-65
2022/07/31 03:52:08;;;;;;;12.93;11.82;;;;;;;;;;5010503;28;20247;-65
2022/07/31 03:54:35;;;;;;;13.15;11.80;;;;;;;;;;5010195;28;20743;-65
2022/07/31 03:57:02;;;;;;;12.32;11.23;;;;;;;;;;5010903;28;20197;-65
2022/07/31 03:59:29;;;;;;;12.70;11.50;;;;;;;;;;5010524;28;20216;-66
2022/07/31 04:01:55;;;;;;;14.15;12.23;;;;;;;;;;5010563;28;20192;-66
2022/07/31 04:04:23;;;;;;;13.27;12.10;;;;;;;;;;5013929;28;20211;-65
2022/07/31 04:06:50;;;;;;;11.80;10.45;;;;;;;;;;5014300;28;20221;-66
2022/07/31 04:09:16;;;;;;;12.20;11.02;;;;;;;;;;5014221;28;20200;-65
2022/07/31 04:11:43;;;;;;;12.68;11.32;;;;;;;;;;5013806;28;20709;-66
2022/07/31 04:14:09;;;;;;;11.48;10.27;;;;;;;;;;5013876;28;20201;-66
2022/07/31 04:16:36;;;;;;;13.30;11.77;;;;;;;;;;5014341;28;20258;-65
2022/07/31 04:19:02;;;;;;;13.05;11.82;;;;;;;;;;5013632;28;20254;-65
2022/07/31 04:21:30;;;;;;;13.23;12.02;;;;;;;;;;5014015;28;20254;-64
2022/07/31 04:23:56;;;;;;;12.40;11.23;;;;;;;;;;5013402;28;20674;-65
2022/07/31 04:26:23;;;;;;;13.88;12.68;;;;;;;;;;5014192;28;20204;-65
2022/07/31 04:28:49;;;;;;;14.30;12.90;;;;;;;;;;5013693;28;20203;-65
2022/07/31 04:31:16;;;;;;;12.23;11.20;;;;;;;;;;5013531;28;20658;-65
2022/07/31 04:33:43;;;;;;;14.05;12.00;;;;;;;;;;5013759;28;20284;-65
2022/07/31 04:36:09;;;;;;;13.25;12.20;;;;;;;;;;5013552;28;20291;-65
2022/07/31 04:38:37;;;;;;;14.35;12.93;;;;;;;;;;5013573;28;20251;-66
2022/07/31 04:41:04;;;;;;;16.08;14.38;;;;;;;;;;5013788;28;20250;-65
2022/07/31 04:43:30;;;;;;;18.10;15.80;;;;;;;;;;5013552;28;20274;-66
2022/07/31 04:45:57;;;;;;;19.00;16.98;;;;;;;;;;5013697;28;20208;-66
2022/07/31 04:48:23;;;;;;;19.85;17.88;;;;;;;;;;5013500;28;20239;-64
2022/07/31 04:50:49;;;;;;;19.80;17.63;;;;;;;;;;5013110;28;20236;-67
2022/07/31 04:53:16;;;;;;;14.27;13.00;;;;;;;;;;5013577;28;20204;-66
2022/07/31 04:56:31;;;;;;;13.63;12.35;;;;;;;;;;5013032;28;20678;-66
2022/07/31 04:58:31;;;;;;;13.35;12.10;;;;;;;;;;5013061;28;20204;-64
2022/07/31 05:00:57;;;;;;;14.52;11.35;;;;;;;;;;5013341;28;20200;-66
2022/07/31 05:03:24;;;;;;;12.52;10.85;;;;;;;;;;5013292;28;20274;-65
2022/07/31 05:05:50;;;;;;;12.93;11.48;;;;;;;;;;5012851;28;20224;-65
2022/07/31 05:08:17;;;;;;;12.25;11.00;;;;;;;;;;5013082;28;20624;-65
2022/07/31 05:13:29;;;;;;;11.55;9.98;;;;;;;;;;5012417;28;20206;-65
2022/07/31 05:15:55;;;;;;;11.13;9.70;;;;;;;;;;5012095;28;20204;-65
2022/07/31 05:18:22;;;;;;;12.10;10.88;;;;;;;;;;5013282;28;20208;-66
2022/07/31 05:20:49;;;;;;;11.40;10.48;;;;;;;;;;5012798;28;20562;-65
2022/07/31 05:23:16;;;;;;;9.85;9.02;;;;;;;;;;5012865;28;20648;-64
2022/07/31 05:25:42;;;;;;;10.05;9.30;;;;;;;;;;5012735;28;20200;-65
2022/07/31 05:28:10;;;;;;;10.93;9.90;;;;;;;;;;5012584;28;20674;-65
2022/07/31 05:30:36;;;;;;;11.13;9.88;;;;;;;;;;5012718;28;20232;-65
2022/07/31 05:33:04;;;;;;;14.32;12.88;;;;;;;;;;5012559;28;20254;-65
2022/07/31 05:35:30;;;;;;;13.18;11.95;;;;;;;;;;5012580;28;20254;-66
2022/07/31 05:37:57;;;;;;;10.57;9.73;;;;;;;;;;5012555;28;20623;-65
2022/07/31 05:40:23;;;;;;;10.75;9.70;;;;;;;;;;5012043;28;20671;-66
2022/07/31 05:42:50;;;;;;;9.90;9.10;;;;;;;;;;5012726;28;20208;-64
2022/07/31 05:45:18;;;;;;;9.40;8.80;;;;;;;;;;5012024;28;20200;-65
2022/07/31 05:47:44;;;;;;;9.90;9.10;;;;;;;;;;5012114;28;20649;-66
2022/07/31 05:50:11;;;;;;;9.38;8.57;;;;;;;;;;5012373;28;20200;-65
2022/07/31 05:52:37;;;;;;;8.73;7.85;;;;;;;22.17;nan;95049.38;5011724;28;20244;-65
2022/07/31 05:55:04;;;;;;;8.93;8.15;;;;;;;;;;5011962;28;20251;-65
2022/07/31 05:57:31;;;;;;;9.05;8.18;;;;;;;;;;5011962;28;20200;-64
2022/07/31 05:59:57;;;;;;;8.13;7.43;;;;;;;;;;5012249;28;20307;-65
2022/07/31 06:02:25;;;;;;;10.88;10.07;;;;;;;;;;5011718;28;20200;-65
2022/07/31 06:04:52;;;;;;;9.65;8.95;;;;;;;;;;5011912;28;20220;-65
2022/07/31 06:07:19;;;;;;;7.88;7.28;;;;;;;27.22;nan;95042.19;5012153;28;20204;-64
2022/07/31 06:09:45;;;;;;;8.00;7.40;;;;;;;27.52;nan;95035.66;5011625;28;20262;-65
2022/07/31 06:12:12;;;;;;;7.30;6.78;;;;;;;28.00;nan;95020.22;5011795;28;20713;-65
2022/07/31 06:14:39;;;;;;;9.00;8.27;;;;;;;27.75;nan;95031.56;5011917;28;20208;-65
2022/07/31 06:17:06;;;;;;;8.52;7.78;;;;;;;27.54;nan;95033.72;5011525;28;20255;-65
2022/07/31 06:19:34;;;;;;;9.68;8.95;;;;;;;27.05;nan;95029.03;5011799;28;20255;-67
2022/07/31 06:22:01;;;;;;;8.25;7.60;;;;;;;;;;5011703;28;20201;-65
2022/07/31 06:24:27;;;;;;;8.27;7.47;;;;;;;29.05;nan;95024.81;5011432;28;20212;-65
2022/07/31 06:26:56;;;;;;;9.55;8.85;;;;;;;;;;5011504;28;20204;-66
2022/07/31 06:29:23;;;;;;;10.98;10.18;;;;;;;30.16;nan;95016.19;5011704;28;20219;-66
2022/07/31 06:31:49;;;;;;;9.60;8.80;;;;;;;;;;5011330;28;20224;-65
2022/07/31 06:34:16;;;;;;;9.75;9.02;;;;;;;;;;5011393;28;20201;-64
2022/07/31 06:36:44;;;;;;;9.68;9.02;;;;;;;27.53;nan;95022.44;5011526;28;20204;-65
2022/07/31 06:39:11;;;;;;;9.48;8.88;;;;;;;26.80;nan;95005.50;5011034;28;20231;-64
2022/07/31 06:41:49;;;;;;;11.05;10.00;;;;;;;;;;5011577;28;20204;-64
2022/07/31 06:44:18;;;;;;;11.82;10.93;;;;;;;25.50;nan;95056.97;5011266;28;20200;-65
2022/07/31 06:46:50;;;;;;;18.35;16.48;;;;;;;;;;5012403;28;20204;-68
2022/07/31 06:49:17;;;;;;;31.35;25.48;;;;;;;;;;5014145;28;20283;-64
2022/07/31 06:51:45;;;;;;;21.38;18.90;;;;;;;;;;5025014;28;20227;-63
2022/07/31 06:54:11;;;;;;;23.83;21.42;;;;;;;;;;5021240;28;20192;-65
2022/07/31 06:56:39;;;;;;;20.25;18.15;;;;;;;28.64;nan;94992.63;5020665;28;20254;-65
2022/07/31 06:59:06;;;;;;;14.95;13.18;;;;;;;;;;5019725;28;20203;-64
2022/07/31 07:01:33;;;;;;;12.63;11.65;;;;;;;28.13;nan;95019.78;5019657;28;20270;-65
2022/07/31 07:04:00;;;;;;;14.13;12.55;;;;;;;27.60;nan;95027.91;5020232;28;20191;-65
2022/07/31 07:06:27;;;;;;;11.55;10.60;;;;;;;27.63;nan;95031.03;5021663;28;20278;-64
2022/07/31 07:08:55;;;;;;;12.50;11.50;;;;;;;28.28;nan;95028.66;5019511;28;20737;-64
2022/07/31 07:11:22;;;;;;;12.20;11.20;;;;;;;28.86;nan;95027.78;5022279;28;20736;-66
2022/07/31 07:13:49;;;;;;;10.43;9.70;;;;;;;;;;5018890;28;20192;-64
2022/07/31 07:16:16;;;;;;;12.68;11.55;;;;;;;30.07;nan;95031.13;5021074;28;20265;-65
2022/07/31 07:18:43;;;;;;;12.43;11.15;;;;;;;29.69;nan;95036.19;5020861;28;20780;-64
2022/07/31 07:21:10;;;;;;;13.57;12.27;;;;;;;29.06;nan;95023.84;5019093;28;20203;-66
2022/07/31 07:23:37;;;;;;;21.30;17.92;;;;;;;28.58;nan;95029.03;5020666;28;20204;-65
2022/07/31 07:26:06;;;;;;;21.95;18.08;;;;;;;28.33;nan;95025.56;5020930;28;20192;-64
2022/07/31 07:28:32;;;;;;;18.85;16.85;;;;;;;28.95;nan;95021.56;5019313;28;20266;-64
2022/07/31 07:30:59;;;;;;;17.02;15.32;;;;;;;;;;5017816;28;20200;-64
2022/07/31 07:33:26;;;;;;;22.00;19.75;;;;;;;28.56;nan;95033.63;5020218;28;20217;-64
2022/07/31 07:35:53;;;;;;;22.95;19.25;;;;;;;27.77;nan;95030.44;5019140;28;20207;-64
2022/07/31 07:38:19;;;;;;;19.40;17.38;;;;;;;;;;5032323;28;20644;-65
2022/07/31 07:40:46;;;;;;;17.10;15.18;;;;;;;26.61;nan;95041.19;5034385;28;20204;-64
2022/07/31 07:43:14;;;;;;;16.88;15.23;;;;;;;26.72;nan;95033.16;5034914;28;20226;-65
2022/07/31 07:45:41;;;;;;;14.80;13.50;;;;;;;;;;5034010;28;20716;-65
2022/07/31 07:48:08;;;;;;;15.38;13.90;;;;;;;27.63;nan;95017.97;5034764;28;20749;-66
2022/07/31 07:50:34;;;;;;;14.75;12.90;;;;;;;27.68;nan;95017.50;5033701;28;20204;-66
2022/07/31 07:53:01;;;;;;;12.95;11.80;;;;;;;28.06;nan;95018.78;5034079;28;20227;-65
2022/07/31 07:55:28;;;;;;;12.07;11.05;;;;;;;27.75;nan;95021.13;5033779;28;20200;-66
2022/07/31 07:57:55;;;;;;;11.10;10.10;;;;;;;27.31;nan;95036.03;5034273;28;20203;-66
2022/07/31 08:00:23;;;;;;;11.48;10.27;;;;;;;27.04;nan;95021.34;5033872;28;20204;-66
2022/07/31 08:02:50;;;;;;;10.02;9.15;;;;;;;;;;5034199;28;20207;-66
2022/07/31 08:05:17;;;;;;;9.55;8.85;;;;;;;27.40;nan;95032.50;5034037;28;20346;-66
2022/07/31 08:07:44;;;;;;;10.23;9.52;;;;;;;;;;5033845;28;20196;-66
2022/07/31 08:10:13;;;;;;;10.13;9.43;;;;;;;26.78;nan;95031.72;5033695;28;20669;-65
2022/07/31 08:12:40;;;;;;;10.02;9.13;;;;;;;;;;5033701;28;20807;-66
2022/07/31 08:15:07;;;;;;;9.95;9.10;;;;;;;;;;5033759;28;20199;-62
2022/07/31 08:17:35;;;;;;;10.13;9.32;;;;;;;;;;5033842;28;20572;-66
2022/07/31 08:20:02;;;;;;;10.40;9.15;;;;;;;;;;5033770;28;20200;-65
2022/07/31 08:22:28;;;;;;;10.05;9.30;;;;;;;27.05;nan;95044.66;5033846;28;20207;-65
2022/07/31 08:24:56;;;;;;;9.88;8.98;;;;;;;27.19;nan;95009.41;5033702;28;20196;-65
2022/07/31 08:27:26;;;;;;;8.63;8.00;;;;;;;27.30;nan;95044.84;5033774;28;20195;-65
2022/07/31 08:29:55;;;;;;;8.88;8.27;;;;;;;27.35;nan;95045.19;5033641;28;20202;-66
2022/07/31 08:32:23;;;;;;;8.63;7.82;;;;;;;27.44;nan;95039.88;5033619;28;20227;-66
2022/07/31 08:34:51;;;;;;;8.68;7.97;;;;;;;27.57;nan;95043.84;5033441;28;20210;-66
2022/07/31 08:37:18;;;;;;;8.15;7.55;;;;;;;;;;5033496;28;20203;-65
2022/07/31 08:39:44;;;;;;;9.02;8.00;;;;;;;;;;5033286;28;20204;-65
2022/07/31 08:42:11;;;;;;;8.55;7.75;;;;;;;27.74;nan;95041.19;5033290;28;20688;-65
2022/07/31 08:44:38;;;;;;;8.18;7.55;;;;;;;;;;5032985;28;20204;-65
2022/07/31 08:47:07;;;;;;;8.65;8.05;;;;;;;27.50;nan;95042.81;5033209;28;20626;-66
2022/07/31 08:49:36;;;;;;;8.63;8.02;;;;;;;;;;5032633;28;20662;-66
2022/07/31 08:52:05;;;;;;;9.15;8.35;;;;;;;27.83;nan;95036.81;5032804;28;20240;-66
2022/07/31 08:54:35;;;;;;;8.45;7.95;;;;;;;28.01;nan;95031.50;5033044;28;20222;-66
2022/07/31 08:57:02;;;;;;;9.73;8.95;;;;;;;28.14;nan;95037.09;5033010;28;20290;-66
2022/07/31 08:59:29;;;;;;;10.07;9.45;;;;;;;27.92;nan;95027.25;5033048;28;20254;-65
2022/07/31 09:01:57;;;;;;;10.45;8.38;;;;;;;;;;5032987;28;20199;-65
2022/07/31 09:04:24;;;;;;;8.80;8.05;;;;;;;27.60;nan;95044.41;5032941;28;20206;-66
2022/07/31 09:06:50;;;;;;;9.90;9.13;;;;;;;;;;5033200;28;20293;-66
2022/07/31 09:09:18;;;;;;;11.63;10.70;;;;;;;26.73;nan;95039.97;5032948;28;20285;-63
2022/07/31 09:11:48;;;;;;;10.88;10.07;;;;;;;;;;5032844;28;20362;-66
2022/07/31 09:14:25;;;;;;;11.38;10.32;;;;;;;26.00;nan;95035.81;5032675;28;20293;-66
2022/07/31 09:16:53;;;;;;;11.20;10.15;;;;;;;;;;5032954;28;20207;-64
2022/07/31 09:19:20;;;;;;;12.55;11.43;;;;;;;;;;5032421;28;20211;-64
2022/07/31 09:21:46;;;;;;;12.80;11.70;;;;;;;;;;5032696;28;20203;-65
2022/07/31 09:24:14;;;;;;;11.43;10.52;;;;;;;;;;5032232;28;20670;-65
2022/07/31 09:26:43;;;;;;;15.18;13.77;;;;;;;;;;5032614;28;20293;-64
2022/07/31 09:29:11;;;;;;;28.50;25.15;;;;;;;;;;5032272;28;20584;-65
2022/07/31 09:31:38;;;;;;;48.80;39.40;;;;;;;;;;5032330;28;20677;-65
2022/07/31 09:34:05;;;;;;;43.63;36.17;;;;;;;26.08;nan;95033.31;5032288;28;20223;-66
2022/07/31 09:36:31;;;;;;;32.50;29.10;;;;;;;;;;5032176;28;20200;-64
2022/07/31 09:38:58;;;;;;;32.10;27.92;;;;;;;;;;5032130;28;20733;-63
2022/07/31 09:41:26;;;;;;;49.17;38.75;;;;;;;26.20;nan;95032.16;5032306;28;20218;-63
2022/07/31 09:43:59;;;;;;;42.15;33.60;;;;;;;26.36;nan;95026.28;5031857;28;20196;-64
2022/07/31 09:46:26;;;;;;;114.10;83.95;;;;;;;;;;5032271;28;20258;-66
2022/07/31 09:48:55;;;;;;;38.15;30.08;;;;;;;;;;5031919;28;20755;-65
2022/07/31 09:51:22;;;;;;;34.83;30.10;;;;;;;;;;5032148;28;20721;-65
2022/07/31 09:53:52;;;;;;;26.45;22.73;;;;;;;;;;5031713;28;20255;-64
2022/07/31 09:56:29;;;;;;;18.55;16.77;;;;;;;;;;5032169;28;20200;-65
2022/07/31 09:58:57;;;;;;;16.25;14.93;;;;;;;;;;5031738;28;20257;-65
2022/07/31 10:01:24;;;;;;;20.15;18.20;;;;;;;;;;5031132;28;20199;-66
2022/07/31 10:03:51;;;;;;;19.02;17.15;;;;;;;;;;5031618;28;20199;-66
2022/07/31 10:06:19;;;;;;;18.73;16.88;;;;;;;;;;5031676;28;20731;-64
2022/07/31 10:08:46;;;;;;;18.08;16.45;;;;;;;;;;5031264;28;21157;-66
2022/07/31 10:11:13;;;;;;;18.73;16.92;;;;;;;;;;5031682;28;20200;-64
2022/07/31 10:13:44;;;;;;;16.98;15.38;;;;;;;;;;5031527;28;20224;-65
2022/07/31 10:16:12;;;;;;;16.38;14.90;;;;;;;;;;5031509;28;20210;-64
2022/07/31 10:18:41;;;;;;;17.20;15.73;;;;;;;;;;5031282;28;20246;-65
2022/07/31 10:21:08;;;;;;;15.85;14.38;;;;;;;;;;5031615;28;20208;-66
2022/07/31 10:23:36;;;;;;;14.05;12.95;;;;;;;;;;5030934;28;20754;-65
2022/07/31 10:26:02;;;;;;;13.48;12.45;;;;;;;;;;5031743;28;20203;-64
2022/07/31 10:28:29;;;;;;;13.35;12.25;;;;;;;;;;5031137;28;20234;-65
2022/07/31 10:30:56;;;;;;;12.55;11.55;;;;;;;;;;5031434;28;20286;-65
2022/07/31 10:33:25;;;;;;;12.30;11.32;;;;;;;;;;5031039;28;20231;-65
2022/07/31 10:36:00;;;;;;;12.93;11.82;;;;;;;26.27;nan;94948.97;5031393;28;20199;-65
2022/07/31 10:38:28;;;;;;;14.13;12.93;;;;;;;;;;5030771;28;20214;-63
2022/07/31 10:41:02;;;;;;;13.65;12.48;;;;;;;26.47;nan;94987.00;5031556;28;20262;-66
2022/07/31 10:43:36;;;;;;;11.70;10.75;;;;;;;26.57;nan;94972.06;5030927;28;20222;-66
2022/07/31 10:46:02;;;;;;;13.27;12.25;;;;;;;;;;5031566;28;20203;-63
2022/07/31 10:48:30;;;;;;;32.72;26.08;;;;;;;26.61;nan;94962.19;5030967;28;20206;-65
2022/07/31 10:51:01;;;;;;;38.75;32.85;;;;;;;;;;5031282;28;20725;-65
2022/07/31 10:53:27;;;;;;;41.92;34.97;;;;;;;;;;5030408;28;20611;-64
2022/07/31 10:55:59;;;;;;;30.73;27.23;;;;;;;;;;5031015;28;20264;-65
2022/07/31 10:58:26;;;;;;;20.65;18.65;;;;;;;;;;5030781;28;20199;-65
2022/07/31 11:00:52;;;;;;;19.65;15.10;;;;;;;;;;5030976;28;20257;-66
2022/07/31 11:03:20;;;;;;;13.63;12.63;;;;;;;26.82;nan;94965.25;5031144;28;20200;-65
2022/07/31 11:05:55;;;;;;;12.18;11.27;;;;;;;;;;5030679;28;20830;-66
2022/07/31 11:08:22;;;;;;;11.95;10.95;;;;;;;;;;5030736;28;20553;-65
2022/07/31 11:10:49;;;;;;;11.93;10.93;;;;;;;;;;5030887;28;20218;-65
2022/07/31 11:13:16;;;;;;;11.50;10.60;;;;;;;;;;5034272;28;20712;-64
2022/07/31 11:15:43;;;;;;;23.52;11.93;;;;;;;26.94;nan;94968.44;5034821;28;20203;-65
2022/07/31 11:18:13;;;;;;;12.55;11.48;;;;;;;;;;5034854;28;20677;-65
2022/07/31 11:20:45;;;;;;;11.95;11.05;;;;;;;26.70;nan;94956.88;5034616;28;20558;-64
2022/07/31 11:23:15;;;;;;;11.95;10.95;;;;;;;;;;5034622;28;20191;-65
2022/07/31 11:25:44;;;;;;;12.57;11.68;;;;;;;26.75;nan;94954.63;5034445;28;20222;-66
2022/07/31 11:28:11;;;;;;;11.27;10.38;;;;;;;;;;5034887;28;20286;-64
2022/07/31 11:30:47;;;;;;;12.07;11.27;;;;;;;;;;5034621;28;20261;-66
2022/07/31 11:33:13;;;;;;;12.73;11.70;;;;;;;;;;5034834;28;20227;-65
2022/07/31 11:35:40;;;;;;;12.35;11.45;;;;;;;;;;5034075;28;20253;-65
2022/07/31 11:38:07;;;;;;;11.55;10.75;;;;;;;27.24;nan;94933.25;5034448;28;20291;-66
2022/07/31 11:40:35;;;;;;;13.88;12.73;;;;;;;;;;5034210;28;20269;-66
2022/07/31 11:43:01;;;;;;;13.10;12.20;;;;;;;27.46;nan;94937.94;5034498;28;20199;-66
2022/07/31 11:45:28;;;;;;;12.82;11.88;;;;;;;27.62;nan;94931.97;5033863;28;20207;-66
2022/07/31 11:47:55;;;;;;;11.48;10.68;;;;;;;27.70;nan;94925.00;5034810;28;20199;-65
2022/07/31 11:50:22;;;;;;;11.98;11.07;;;;;;;27.68;nan;94921.72;5034116;28;20203;-65
2022/07/31 11:52:48;;;;;;;11.00;10.25;;;;;;;27.59;nan;94927.88;5034309;28;20582;-66
2022/07/31 11:55:15;;;;;;;10.98;10.18;;;;;;;;;;5033916;28;20219;-66
2022/07/31 11:57:43;;;;;;;10.82;10.02;;;;;;;27.46;nan;94916.25;5033904;28;20688;-66
2022/07/31 12:00:13;;;;;;;16.52;15.15;;;;;;;27.52;nan;94916.41;5034155;28;20670;-66
2022/07/31 12:02:40;;;;;;;58.85;45.55;;;;;;;;;;5034088;28;20584;-65
2022/07/31 12:05:11;;;;;;;33.15;28.73;;;;;;;27.61;nan;94915.50;5033473;28;20315;-66
2022/07/31 12:07:39;;;;;;;20.35;18.38;;;;;;;27.43;nan;94922.59;5033699;28;20739;-65
2022/07/31 12:10:08;;;;;;;25.63;22.77;;;;;;;27.48;nan;94925.53;5033694;28;20262;-65
2022/07/31 12:12:35;;;;;;;14.98;13.65;;;;;;;;;;5033915;28;20204;-65
2022/07/31 12:15:14;;;;;;;14.73;13.27;;;;;;;27.49;nan;94880.19;5033756;28;20225;-64
2022/07/31 12:17:41;;;;;;;12.23;11.18;;;;;;;27.58;nan;94904.56;5033665;28;20199;-65
2022/07/31 12:20:08;;;;;;;10.02;9.35;;;;;;;;;;5033662;28;20200;-65
2022/07/31 12:22:35;;;;;;;11.07;10.38;;;;;;;27.40;nan;94897.63;5033516;28;20208;-64
2022/07/31 12:25:02;;;;;;;8.15;7.65;;;;;;;27.32;nan;94899.38;5033193;28;20262;-65
2022/07/31 12:27:28;;;;;;;8.63;7.88;;;;;;;;;;5033300;28;20791;-65
2022/07/31 12:29:55;;;;;;;8.55;8.02;;;;;;;27.34;nan;94892.22;5033708;28;20692;-66
2022/07/31 12:32:26;;;;;;;8.63;8.13;;;;;;;;;;5033620;28;20202;-68
2022/07/31 12:35:02;;;;;;;8.68;8.07;;;;;;;27.45;nan;94878.88;5033450;28;20242;-65
2022/07/31 12:37:29;;;;;;;8.48;7.97;;;;;;;27.44;nan;94877.25;5033333;28;20199;-65
2022/07/31 12:39:56;;;;;;;9.02;8.52;;;;;;;;;;5033317;28;20628;-66
2022/07/31 12:42:23;;;;;;;8.13;7.72;;;;;;;;;;5033502;28;20261;-66
2022/07/31 12:44:50;;;;;;;9.70;8.98;;;;;;;27.66;nan;94876.69;5032915;28;20254;-65
2022/07/31 12:47:20;;;;;;;8.68;8.18;;;;;;;27.55;nan;94874.31;5033040;28;20615;-65
2022/07/31 12:49:48;;;;;;;9.57;8.90;;;;;;;27.57;nan;94871.56;5033023;28;20249;-66
2022/07/31 12:52:15;;;;;;;9.40;8.80;;;;;;;27.63;nan;94866.56;5032941;28;20231;-64
2022/07/31 12:54:42;;;;;;;9.60;8.75;;;;;;;;;;5033040;28;20227;-65
2022/07/31 12:57:09;;;;;;;9.52;8.98;;;;;;;27.85;nan;94870.34;5033339;28;20258;-65
2022/07/31 12:59:35;;;;;;;49.35;40.88;;;;;;;;;;5033233;28;20239;-65
2022/07/31 13:02:02;;;;;;;47.60;39.92;;;;;;;27.74;nan;94868.84;5032766;28;20253;-65
2022/07/31 13:04:28;;;;;;;51.55;40.88;;;;;;;;;;5033125;28;20195;-66
2022/07/31 13:06:57;;;;;;;43.95;39.20;;;;;;;27.65;nan;94854.16;5032940;28;20200;-65
2022/07/31 13:09:24;;;;;;;14.13;12.80;;;;;;;27.63;nan;94855.28;5032752;28;20203;-66
2022/07/31 13:11:51;;;;;;;11.43;10.43;;;;;;;27.57;nan;94856.72;5032886;28;20204;-65
2022/07/31 13:14:20;;;;;;;10.27;9.68;;;;;;;27.55;nan;94853.44;5032263;28;21139;-64
2022/07/31 13:16:48;;;;;;;10.70;10.00;;;;;;;27.56;nan;94849.84;5033742;28;20638;-63
2022/07/31 13:19:15;;;;;;;9.57;8.95;;;;;;;27.53;nan;94860.63;5031645;28;20258;-64
2022/07/31 13:21:43;;;;;;;9.60;9.10;;;;;;;27.63;nan;94845.66;5032974;28;20195;-66
2022/07/31 13:24:12;;;;;;;9.15;8.25;;;;;;;27.65;nan;94854.16;5032201;28;21460;-66
2022/07/31 13:26:40;;;;;;;8.82;8.05;;;;;;;27.80;nan;94845.69;5032535;28;20290;-66
2022/07/31 13:29:07;;;;;;;9.20;8.70;;;;;;;27.88;nan;94859.59;5032334;28;20195;-66